Time;durP1;ratioP1;P1;durP2;ratioP2;P2;SDS_P1;SDS_P2;PMS_P1;PMS_P2;Temp;Humidity;BMP_temperature;BMP_pressure;BME280_temperature;BME280_humidity;BME280_pressure;Samples;Min_cycle;Max_cycle;Signal;HPM_P1;HPM_P2
2023/07/16 00:01:12;;;;;;;3.35;2.92;;;23.60;97.80;;;;;;4919531;29;20067;-63
2023/07/16 00:03:38;;;;;;;3.97;2.75;;;23.50;97.70;;;;;;4924988;29;20151;-63
2023/07/16 00:06:04;;;;;;;3.83;2.90;;;23.50;97.90;;;;;;4924826;29;20123;-63
2023/07/16 00:08:29;;;;;;;3.10;2.80;;;23.50;97.80;;;;;;4905819;29;20039;-63
2023/07/16 00:10:55;;;;;;;4.22;3.03;;;23.40;97.90;;;;;;4923709;29;20126;-63
2023/07/16 00:13:22;;;;;;;3.78;2.95;;;23.30;98.00;;;;;;4920620;29;20058;-63
2023/07/16 00:15:47;;;;;;;4.40;2.88;;;23.30;98.10;;;;;;4920841;29;20040;-63
2023/07/16 00:18:13;;;;;;;4.07;3.05;;;23.30;98.20;;;;;;4919222;29;20090;-62
2023/07/16 00:20:39;;;;;;;4.22;3.10;;;23.20;98.40;;;;;;4925825;29;20134;-63
2023/07/16 00:23:05;;;;;;;5.88;3.10;;;23.20;98.50;;;;;;4925631;29;20027;-63
2023/07/16 00:25:31;;;;;;;3.72;2.78;;;23.20;98.70;;;;;;4920106;29;20047;-63
2023/07/16 00:27:58;;;;;;;3.67;2.97;;;23.20;98.80;;;;;;4921951;29;20048;-63
2023/07/16 00:30:23;;;;;;;4.45;3.10;;;23.20;98.90;;;;;;4908110;29;20796;-63
2023/07/16 00:32:50;;;;;;;3.80;3.10;;;23.20;99.00;;;;;;4901380;29;20036;-63
2023/07/16 00:35:16;;;;;;;4.30;3.28;;;23.20;99.10;;;;;;4919725;29;20024;-63
2023/07/16 00:37:41;;;;;;;3.25;2.90;;;23.20;99.20;;;;;;4927200;29;20058;-63
2023/07/16 00:40:08;;;;;;;3.80;2.88;;;23.20;99.20;;;;;;4928892;29;20070;-63
2023/07/16 00:42:35;;;;;;;4.50;2.90;;;23.20;99.10;;;;;;4914741;29;20497;-63
2023/07/16 00:45:01;;;;;;;3.95;2.97;;;23.20;99.10;;;;;;4913667;29;20043;-63
2023/07/16 00:47:27;;;;;;;4.25;3.30;;;23.30;98.80;;;;;;4924557;29;20504;-63
2023/07/16 00:49:53;;;;;;;7.90;3.38;;;23.30;98.30;;;;;;4923385;29;20071;-63
2023/07/16 00:52:20;;;;;;;3.47;2.80;;;23.40;98.30;;;;;;4904345;29;20059;-63
2023/07/16 00:54:47;;;;;;;3.45;3.00;;;23.40;98.10;;;;;;4924003;29;20066;-63
2023/07/16 00:57:13;;;;;;;4.70;3.33;;;23.50;97.70;;;;;;4912661;29;20122;-63
2023/07/16 00:59:38;;;;;;;2.60;2.40;;;23.50;97.50;;;;;;4928074;29;20075;-63
2023/07/16 01:02:05;;;;;;;3.60;2.70;;;23.60;97.20;;;;;;4925856;29;20089;-63
2023/07/16 01:04:31;;;;;;;2.90;2.63;;;23.70;96.80;;;;;;4923937;29;20031;-63
2023/07/16 01:07:00;;;;;;;4.95;2.90;;;23.70;97.00;;;;;;4923736;29;20047;-63
2023/07/16 01:09:26;;;;;;;3.38;2.78;;;23.80;97.30;;;;;;4904198;29;20039;-63
2023/07/16 01:11:53;;;;;;;2.97;2.65;;;23.80;96.00;;;;;;4903408;29;20027;-63
2023/07/16 01:14:20;;;;;;;4.28;2.72;;;23.90;95.60;;;;;;4928872;29;20027;-63
2023/07/16 01:16:45;;;;;;;3.10;2.30;;;23.90;94.70;;;;;;4926627;29;20067;-63
2023/07/16 01:19:13;;;;;;;2.78;2.38;;;23.90;94.70;;;;;;4897071;29;20134;-63
2023/07/16 01:22:09;;;;;;;4.55;2.60;;;23.90;94.50;;;;;;4927012;29;20028;-63
2023/07/16 01:25:02;;;;;;;3.33;2.30;;;23.90;94.40;;;;;;4923628;29;20414;-64
2023/07/16 01:27:45;;;;;;;4.65;2.45;;;23.90;94.40;;;;;;4908440;29;20508;-63
2023/07/16 01:30:15;;;;;;;2.78;2.50;;;24.00;94.50;;;;;;4907487;29;20087;-64
2023/07/16 01:32:42;;;;;;;4.35;2.90;;;24.00;94.30;;;;;;4927928;29;20111;-64
2023/07/16 01:35:08;;;;;;;3.05;2.50;;;24.00;94.60;;;;;;4926923;29;20024;-63
2023/07/16 01:37:34;;;;;;;3.83;2.58;;;23.90;96.00;;;;;;4910720;29;20035;-63
2023/07/16 01:40:01;;;;;;;4.43;2.78;;;23.80;96.70;;;;;;4907305;29;20110;-63
2023/07/16 01:42:28;;;;;;;4.60;2.80;;;23.80;96.80;;;;;;4921715;29;20078;-63
2023/07/16 01:44:53;;;;;;;4.85;2.85;;;23.70;97.30;;;;;;4923063;29;20036;-63
2023/07/16 01:47:28;;;;;;;5.88;3.00;;;23.60;97.80;;;;;;4904338;29;20032;-63
2023/07/16 01:49:55;;;;;;;6.13;2.80;;;23.50;98.70;;;;;;4910459;29;20039;-63
2023/07/16 01:52:21;;;;;;;4.35;2.63;;;23.50;99.50;;;;;;4912171;29;20067;-63
2023/07/16 01:54:46;;;;;;;3.72;2.80;;;23.40;99.20;;;;;;4924434;29;20787;-63
2023/07/16 01:57:12;;;;;;;4.75;3.15;;;23.40;99.30;;;;;;4924278;29;20412;-63
2023/07/16 01:59:38;;;;;;;4.63;3.05;;;23.40;99.50;;;;;;4908327;29;20035;-63
2023/07/16 02:02:04;;;;;;;3.58;2.78;;;23.40;99.60;;;;;;4924806;29;20764;-63
2023/07/16 02:04:30;;;;;;;5.00;3.03;;;23.30;99.90;;;;;;4921806;29;20493;-63
2023/07/16 02:06:58;;;;;;;6.53;2.83;;;23.30;99.90;;;;;;4906626;29;20523;-63
2023/07/16 02:09:25;;;;;;;4.03;2.90;;;23.20;99.90;;;;;;4927356;29;20032;-63
2023/07/16 02:11:51;;;;;;;3.60;2.90;;;23.10;99.90;;;;;;4924151;29;20201;-63
2023/07/16 02:14:17;;;;;;;3.67;3.05;;;23.00;99.90;;;;;;4911753;29;20138;-63
2023/07/16 02:16:42;;;;;;;5.82;2.97;;;23.00;99.90;;;;;;4900469;29;20115;-64
2023/07/16 02:19:08;;;;;;;4.35;2.78;;;23.00;99.90;;;;;;4924562;29;20024;-65
2023/07/16 02:21:35;;;;;;;3.97;2.85;;;23.00;99.90;;;;;;4920435;29;20031;-63
2023/07/16 02:24:00;;;;;;;4.72;2.70;;;22.90;99.90;;;;;;4909648;29;20027;-63
2023/07/16 02:26:26;;;;;;;2.70;2.50;;;22.90;99.90;;;;;;4910110;29;20074;-63
2023/07/16 02:28:52;;;;;;;3.35;2.28;;;22.80;99.90;;;;;;4924526;29;20417;-63
2023/07/16 02:31:17;;;;;;;2.80;2.58;;;22.80;99.90;;;;;;4910997;29;20036;-64
2023/07/16 02:33:43;;;;;;;2.33;2.13;;;22.70;99.90;;;;;;4921598;29;20040;-63
2023/07/16 02:36:09;;;;;;;3.40;2.70;;;22.70;99.90;;;;;;4922879;29;20403;-64
2023/07/16 02:38:35;;;;;;;3.53;2.90;;;22.60;99.90;;;;;;4918902;29;20804;-64
2023/07/16 02:41:00;;;;;;;7.65;3.00;;;22.60;99.90;;;;;;4924086;29;20878;-64
2023/07/16 02:43:26;;;;;;;4.13;2.63;;;22.60;99.90;;;;;;4906788;29;20044;-63
2023/07/16 02:45:52;;;;;;;6.60;3.25;;;22.50;99.90;;;;;;4925828;29;20120;-63
2023/07/16 02:48:18;;;;;;;3.10;2.67;;;22.40;99.90;;;;;;4925038;29;20122;-64
2023/07/16 02:50:43;;;;;;;3.67;3.25;;;22.40;99.90;;;;;;4921826;29;20040;-63
2023/07/16 02:53:10;;;;;;;5.53;3.53;;;22.40;99.90;;;;;;4922753;29;20050;-63
2023/07/16 02:55:36;;;;;;;3.70;3.30;;;22.40;99.90;;;;;;4900238;29;20106;-63
2023/07/16 02:58:05;;;;;;;4.85;2.83;;;22.40;99.90;;;;;;4902632;29;20043;-64
2023/07/16 03:00:31;;;;;;;4.28;3.03;;;22.40;99.90;;;;;;4924155;29;20035;-63
2023/07/16 03:03:01;;;;;;;4.28;3.17;;;22.30;99.90;;;;;;4908007;29;20115;-63
2023/07/16 03:05:27;;;;;;;6.68;3.30;;;22.30;99.90;;;;;;4924758;29;20040;-63
2023/07/16 03:07:53;;;;;;;4.47;2.78;;;22.30;99.90;;;;;;4908938;29;20039;-63
2023/07/16 03:10:20;;;;;;;6.40;3.40;;;22.30;99.90;;;;;;4922045;29;20036;-63
2023/07/16 03:12:46;;;;;;;2.65;2.28;;;22.30;99.90;;;;;;4900488;29;20040;-63
2023/07/16 03:15:12;;;;;;;3.55;3.00;;;22.20;99.90;;;;;;4919886;29;20032;-63
2023/07/16 03:17:38;;;;;;;5.05;2.72;;;22.30;99.90;;;;;;4923719;29;20127;-63
2023/07/16 03:20:05;;;;;;;6.35;2.90;;;22.30;99.90;;;;;;4910490;29;20090;-64
2023/07/16 03:22:31;;;;;;;3.42;2.65;;;22.20;99.90;;;;;;4908292;29;20122;-63
2023/07/16 03:24:57;;;;;;;4.03;2.47;;;22.20;99.90;;;;;;4923116;29;20388;-63
2023/07/16 03:27:23;;;;;;;3.88;2.60;;;22.20;99.90;;;;;;4902249;29;20035;-63
2023/07/16 03:29:54;;;;;;;2.67;2.45;;;22.10;99.90;;;;;;4906730;29;20119;-63
2023/07/16 03:32:20;;;;;;;5.82;2.70;;;22.10;99.90;;;;;;4920554;29;20132;-64
2023/07/16 03:34:46;;;;;;;3.45;2.63;;;22.10;99.90;;;;;;4916861;29;20107;-63
2023/07/16 03:37:12;;;;;;;6.03;3.00;;;22.10;99.90;;;;;;4925758;29;20036;-63
2023/07/16 03:39:38;;;;;;;4.00;2.65;;;22.10;99.90;;;;;;4923827;29;20771;-63
2023/07/16 03:42:04;;;;;;;3.58;2.67;;;22.10;99.90;;;;;;4910233;29;20055;-63
2023/07/16 03:44:30;;;;;;;4.28;2.88;;;22.10;99.90;;;;;;4901579;29;20028;-63
2023/07/16 03:46:57;;;;;;;3.67;2.75;;;22.10;99.90;;;;;;4905810;29;20036;-63
2023/07/16 03:49:22;;;;;;;3.25;2.65;;;22.10;99.90;;;;;;4900941;29;20031;-63
2023/07/16 03:51:48;;;;;;;3.28;2.95;;;22.10;99.90;;;;;;4904007;29;20138;-63
2023/07/16 03:54:14;;;;;;;4.35;3.42;;;22.10;99.90;;;;;;4926177;29;20063;-63
2023/07/16 03:56:40;;;;;;;3.92;3.00;;;22.20;99.90;;;;;;4908600;29;20086;-63
2023/07/16 03:59:05;;;;;;;3.65;2.90;;;22.20;99.90;;;;;;4910141;29;20659;-63
2023/07/16 04:01:31;;;;;;;3.80;2.92;;;22.10;99.90;;;;;;4921350;29;20062;-63
2023/07/16 04:03:57;;;;;;;3.83;2.58;;;22.10;99.90;;;;;;4903613;29;20411;-63
2023/07/16 04:06:23;;;;;;;3.90;2.67;;;22.10;99.90;;;;;;4900608;29;20027;-63
2023/07/16 04:08:49;;;;;;;4.57;3.10;;;22.10;99.90;;;;;;4900664;29;20032;-63
2023/07/16 04:11:14;;;;;;;4.97;2.90;;;22.10;99.90;;;;;;4909964;29;20040;-63
2023/07/16 04:13:40;;;;;;;4.93;3.00;;;22.10;99.90;;;;;;4923868;29;20036;-63
2023/07/16 04:16:06;;;;;;;4.68;2.80;;;22.10;99.90;;;;;;4924125;29;20043;-63
2023/07/16 04:18:32;;;;;;;5.38;3.15;;;22.20;99.90;;;;;;4921554;29;20051;-63
2023/07/16 04:20:57;;;;;;;6.00;3.10;;;22.20;99.90;;;;;;4921005;29;20086;-63
2023/07/16 04:23:23;;;;;;;2.85;2.65;;;22.20;99.90;;;;;;4922359;29;20573;-63
2023/07/16 04:25:53;;;;;;;5.25;3.03;;;22.10;99.90;;;;;;4917816;29;20043;-63
2023/07/16 04:28:19;;;;;;;3.42;2.65;;;22.10;99.90;;;;;;4922940;29;20082;-64
2023/07/16 04:30:45;;;;;;;3.72;2.42;;;22.10;99.90;;;;;;4924804;29;20035;-64
2023/07/16 04:33:11;;;;;;;2.95;2.38;;;22.10;99.90;;;;;;4924240;29;20032;-64
2023/07/16 04:35:36;;;;;;;3.75;3.28;;;22.20;99.90;;;;;;4921056;29;20039;-64
2023/07/16 04:38:02;;;;;;;3.92;3.00;;;22.20;99.90;;;;;;4920535;29;20531;-64
2023/07/16 04:40:31;;;;;;;5.45;3.28;;;22.10;99.90;;;;;;4919271;29;20549;-64
2023/07/16 04:42:57;;;;;;;4.13;3.13;;;22.10;99.90;;;;;;4918952;29;20036;-64
2023/07/16 04:45:23;;;;;;;6.07;3.65;;;22.10;99.90;;;;;;4923028;29;20035;-64
2023/07/16 04:47:48;;;;;;;3.80;3.22;;;22.10;99.90;;;;;;4924890;29;20063;-64
2023/07/16 04:50:14;;;;;;;4.72;3.25;;;22.10;99.90;;;;;;4925476;29;20625;-64
2023/07/16 04:52:40;;;;;;;4.82;3.70;;;22.20;99.90;;;;;;4921665;29;20078;-64
2023/07/16 04:55:06;;;;;;;3.83;3.40;;;22.20;99.90;;;;;;4923980;29;20174;-64
2023/07/16 04:57:33;;;;;;;4.22;3.42;;;22.20;99.90;;;;;;4919251;29;20031;-64
2023/07/16 04:59:59;;;;;;;5.30;3.53;;;22.20;99.90;;;;;;4919839;29;20038;-63
2023/07/16 05:02:24;;;;;;;4.43;3.30;;;22.10;99.90;;;;;;4919353;29;20062;-63
2023/07/16 05:04:50;;;;;;;6.50;3.35;;;22.10;99.90;;;;;;4925350;29;20443;-63
2023/07/16 05:07:16;;;;;;;4.25;3.53;;;22.00;99.90;;;;;;4924500;29;20040;-63
2023/07/16 05:09:44;;;;;;;3.75;3.35;;;21.90;99.90;;;;;;4922262;29;20118;-63
2023/07/16 05:12:10;;;;;;;4.05;3.65;;;21.90;99.90;;;;;;4922246;29;20053;-63
2023/07/16 05:14:47;;;;;;;3.63;3.17;;;21.90;99.90;;;;;;4921427;29;20137;-63
2023/07/16 05:17:14;;;;;;;3.70;2.90;;;22.00;99.90;;;;;;4916295;29;20036;-63
2023/07/16 05:19:40;;;;;;;5.13;3.22;;;22.10;99.90;;;;;;4916037;29;20039;-63
2023/07/16 05:22:06;;;;;;;6.43;3.58;;;22.10;99.90;;;;;;4928690;29;20024;-63
2023/07/16 05:24:32;;;;;;;5.78;3.17;;;22.00;99.90;;;;;;4925512;29;20027;-63
2023/07/16 05:26:58;;;;;;;5.25;2.97;;;21.90;99.90;;;;;;4926272;29;20050;-63
2023/07/16 05:29:24;;;;;;;3.92;3.10;;;22.00;99.90;;;;;;4909546;29;20640;-63
2023/07/16 05:31:50;;;;;;;4.72;2.95;;;22.10;99.90;;;;;;4922856;29;20042;-63
2023/07/16 05:34:16;;;;;;;4.95;3.50;;;22.30;99.90;;;;;;4922817;29;20036;-63
2023/07/16 05:36:44;;;;;;;4.00;3.22;;;22.40;99.90;;;;;;4919548;29;20028;-63
2023/07/16 05:39:12;;;;;;;3.58;2.78;;;22.40;99.90;;;;;;4925734;29;20047;-63
2023/07/16 05:41:39;;;;;;;4.38;2.90;;;22.40;99.90;;;;;;4927104;29;20495;-63
2023/07/16 05:44:05;;;;;;;3.28;2.80;;;22.40;99.90;;;;;;4926749;29;20035;-64
2023/07/16 05:46:32;;;;;;;4.80;3.13;;;22.40;99.90;;;;;;4924730;29;20036;-63
2023/07/16 05:48:58;;;;;;;4.80;3.15;;;22.30;99.90;;;;;;4924186;29;20043;-64
2023/07/16 05:51:24;;;;;;;7.15;3.63;;;22.20;99.90;;;;;;4922493;29;20189;-63
2023/07/16 05:53:50;;;;;;;4.78;3.45;;;22.30;99.90;;;;;;4906077;29;20039;-66
2023/07/16 05:56:15;;;;;;;10.65;4.20;;;22.50;99.90;;;;;;4925112;29;20043;-64
2023/07/16 05:58:41;;;;;;;7.93;4.80;;;22.50;99.90;;;;;;4927646;29;20043;-64
2023/07/16 06:01:09;;;;;;;4.95;3.28;;;22.60;99.90;;;;;;4926650;29;20122;-64
2023/07/16 06:03:34;;;;;;;5.95;3.78;;;22.70;99.90;;;;;;4924240;29;20027;-63
2023/07/16 06:06:00;;;;;;;5.30;2.70;;;22.80;99.90;;;;;;4926225;29;20803;-64
2023/07/16 06:08:26;;;;;;;2.70;2.50;;;23.00;99.90;;;;;;4924303;29;20047;-64
2023/07/16 06:10:52;;;;;;;4.72;2.85;;;23.10;99.90;;;;;;4921176;29;20036;-64
2023/07/16 06:13:17;;;;;;;5.50;2.70;;;23.10;99.90;;;;;;4921448;29;20530;-64
2023/07/16 06:15:43;;;;;;;3.33;2.63;;;23.20;99.90;;;;;;4927054;29;20034;-64
2023/07/16 06:18:09;;;;;;;5.00;2.60;;;23.20;99.90;;;;;;4926883;29;20035;-63
2023/07/16 06:20:35;;;;;;;3.53;2.75;;;23.40;99.90;;;;;;4924366;29;20122;-64
2023/07/16 06:23:01;;;;;;;3.05;2.50;;;23.40;99.90;;;;;;4925979;29;20122;-65
2023/07/16 06:25:27;;;;;;;2.78;2.15;;;23.50;99.90;;;;;;4922365;29;20058;-65
2023/07/16 06:27:52;;;;;;;3.45;2.95;;;23.50;99.90;;;;;;4921138;29;20028;-66
2023/07/16 06:30:18;;;;;;;4.45;3.35;;;23.50;99.90;;;;;;4919782;29;20051;-65
2023/07/16 06:32:44;;;;;;;3.85;2.60;;;23.60;99.90;;;;;;4924240;29;20062;-65
2023/07/16 06:35:10;;;;;;;3.53;2.33;;;23.60;99.90;;;;;;4926089;29;20504;-65
2023/07/16 06:37:36;;;;;;;2.58;2.28;;;23.70;99.90;;;;;;4923761;29;20820;-65
2023/07/16 06:40:03;;;;;;;2.70;2.17;;;23.70;99.90;;;;;;4922652;29;20058;-66
2023/07/16 06:42:29;;;;;;;3.10;2.13;;;23.80;99.90;;;;;;4903921;29;20043;-65
2023/07/16 06:44:54;;;;;;;4.43;2.40;;;23.90;99.90;;;;;;4920371;29;20035;-64
2023/07/16 06:47:20;;;;;;;3.72;2.38;;;24.00;99.90;;;;;;4920626;29;20035;-65
2023/07/16 06:49:46;;;;;;;4.07;2.70;;;24.10;99.90;;;;;;4925575;29;20040;-65
2023/07/16 06:52:22;;;;;;;3.90;2.20;;;24.20;99.90;;;;;;4924218;29;20059;-65
2023/07/16 06:54:48;;;;;;;3.95;2.65;;;24.40;99.90;;;;;;4924175;29;20417;-65
2023/07/16 06:57:14;;;;;;;6.22;2.70;;;24.40;99.90;;;;;;4924520;29;20216;-65
2023/07/16 06:59:40;;;;;;;3.10;2.30;;;24.50;99.90;;;;;;4920782;29;20624;-65
2023/07/16 07:02:06;;;;;;;4.32;2.45;;;24.50;99.90;;;;;;4922268;29;20719;-65
2023/07/16 07:04:32;;;;;;;3.92;2.13;;;24.50;99.30;;;;;;4918482;29;20036;-65
2023/07/16 07:06:57;;;;;;;2.80;1.90;;;24.50;99.50;;;;;;4923092;29;20054;-65
2023/07/16 07:09:23;;;;;;;2.80;2.00;;;24.60;99.70;;;;;;4926981;29;20035;-65
2023/07/16 07:11:49;;;;;;;2.70;2.00;;;24.70;99.60;;;;;;4924671;29;20036;-65
2023/07/16 07:14:14;;;;;;;4.50;2.13;;;24.70;99.00;;;;;;4923729;29;20071;-65
2023/07/16 07:16:40;;;;;;;4.30;2.35;;;24.70;98.90;;;;;;4921070;29;20040;-62
2023/07/16 07:19:06;;;;;;;4.47;2.28;;;24.70;98.90;;;;;;4922427;29;20044;-65
2023/07/16 07:21:32;;;;;;;2.45;2.25;;;24.70;99.10;;;;;;4921029;29;20043;-65
2023/07/16 07:23:57;;;;;;;3.55;2.20;;;24.70;99.10;;;;;;4919834;29;20036;-65
2023/07/16 07:26:24;;;;;;;4.18;2.15;;;24.70;99.00;;;;;;4926946;29;20035;-65
2023/07/16 07:28:50;;;;;;;2.95;2.35;;;24.70;98.80;;;;;;4925025;29;20404;-65
2023/07/16 07:31:16;;;;;;;3.67;2.10;;;24.50;98.80;;;;;;4924573;29;20036;-64
2023/07/16 07:33:41;;;;;;;2.53;1.83;;;24.50;99.00;;;;;;4921033;29;20390;-64
2023/07/16 07:36:07;;;;;;;4.10;1.90;;;24.40;99.20;;;;;;4922537;29;20119;-64
2023/07/16 07:38:33;;;;;;;2.78;1.80;;;24.30;98.60;;;;;;4921512;29;20127;-65
2023/07/16 07:40:58;;;;;;;4.57;2.00;;;24.40;99.20;;;;;;4919918;29;20544;-65
2023/07/16 07:43:24;;;;;;;1.92;1.73;;;24.50;99.20;;;;;;4922400;29;20027;-65
2023/07/16 07:45:50;;;;;;;2.95;1.80;;;24.50;98.50;;;;;;4922117;29;20513;-65
2023/07/16 07:48:16;;;;;;;3.78;1.67;;;24.50;99.30;;;;;;4924456;29;20055;-65
2023/07/16 07:50:42;;;;;;;2.00;1.58;;;24.50;98.50;;;;;;4921744;29;20050;-65
2023/07/16 07:53:07;;;;;;;2.72;1.65;;;24.60;97.80;;;;;;4921852;29;20031;-65
2023/07/16 07:55:37;;;;;;;3.10;1.65;;;24.80;97.70;;;;;;4919023;29;20036;-65
2023/07/16 07:58:03;;;;;;;2.03;1.30;;;24.90;96.50;;;;;;4919568;29;20039;-65
2023/07/16 08:00:29;;;;;;;2.95;1.40;;;25.00;96.20;;;;;;4921648;29;20042;-64
2023/07/16 08:02:54;;;;;;;2.25;1.48;;;25.10;96.00;;;;;;4925182;29;20035;-64
2023/07/16 08:05:20;;;;;;;3.70;1.40;;;25.20;94.70;;;;;;4923579;29;20119;-64
2023/07/16 08:07:47;;;;;;;2.55;1.30;;;25.30;94.50;;;;;;4922099;29;20035;-64
2023/07/16 08:10:13;;;;;;;2.85;1.38;;;25.30;93.70;;;;;;4922022;29;20497;-65
2023/07/16 08:12:38;;;;;;;2.97;1.58;;;25.40;93.50;;;;;;4916951;29;20032;-65
2023/07/16 08:15:07;;;;;;;2.95;1.50;;;25.40;93.90;;;;;;4919854;29;20107;-65
2023/07/16 08:17:33;;;;;;;2.10;1.45;;;25.50;93.80;;;;;;4919423;29;20039;-65
2023/07/16 08:19:58;;;;;;;1.92;1.30;;;25.60;94.60;;;;;;4925547;29;20036;-65
2023/07/16 08:22:24;;;;;;;2.35;1.65;;;25.80;93.50;;;;;;4925145;29;20035;-65
2023/07/16 08:24:51;;;;;;;7.93;5.28;;;25.80;92.70;;;;;;4904488;29;20079;-65
2023/07/16 08:27:18;;;;;;;3.50;1.80;;;25.80;92.90;;;;;;4922863;29;20058;-65
2023/07/16 08:29:44;;;;;;;3.78;1.73;;;25.80;93.10;;;;;;4918570;29;20143;-65
2023/07/16 08:32:13;;;;;;;4.68;1.98;;;25.80;92.90;;;;;;4920278;29;20139;-65
2023/07/16 08:34:38;;;;;;;5.63;2.08;;;25.80;93.20;;;;;;4916553;29;20500;-65
2023/07/16 08:37:04;;;;;;;3.08;1.80;;;25.70;92.40;;;;;;4925061;29;20110;-65
2023/07/16 08:39:31;;;;;;;4.73;1.83;;;25.60;92.80;;;;;;4924785;29;20036;-65
2023/07/16 08:41:57;;;;;;;2.58;1.85;;;25.70;92.80;;;;;;4922805;29;20044;-65
2023/07/16 08:44:23;;;;;;;4.55;1.83;;;25.70;92.00;;;;;;4919484;29;20143;-65
2023/07/16 08:46:51;;;;;;;2.97;1.90;;;25.70;92.50;;;;;;4919722;29;20114;-65
2023/07/16 08:49:18;;;;;;;3.33;1.63;;;25.70;91.40;;;;;;4919841;29;20039;-65
2023/07/16 08:51:47;;;;;;;4.30;1.63;;;25.80;90.70;;;;;;4916570;29;20550;-65
2023/07/16 08:54:15;;;;;;;5.07;1.95;;;25.80;90.90;;;;;;4922393;29;20059;-65
2023/07/16 08:56:43;;;;;;;5.30;1.92;;;25.80;90.50;;;;;;4926776;29;20524;-65
2023/07/16 08:59:10;;;;;;;3.17;1.77;;;25.70;90.40;;;;;;4927434;29;20035;-66
2023/07/16 09:01:37;;;;;;;2.70;1.42;;;25.80;91.20;;;;;;4924998;29;20469;-66
2023/07/16 09:04:03;;;;;;;3.72;1.45;;;25.90;90.60;;;;;;4925224;29;20122;-66
2023/07/16 09:06:29;;;;;;;2.58;1.60;;;25.90;88.90;;;;;;4921541;29;20592;-65
2023/07/16 09:08:55;;;;;;;2.38;1.60;;;25.80;89.40;;;;;;4922312;29;20032;-66
2023/07/16 09:11:22;;;;;;;5.57;1.73;;;25.70;90.50;;;;;;4926450;29;20048;-67
2023/07/16 09:13:48;;;;;;;2.83;1.70;;;25.70;89.10;;;;;;4927517;29;20067;-66
2023/07/16 09:16:16;;;;;;;5.00;1.58;;;25.80;90.50;;;;;;4927084;29;20035;-66
2023/07/16 09:18:42;;;;;;;2.60;1.65;;;25.80;90.50;;;;;;4925002;29;20040;-65
2023/07/16 09:21:08;;;;;;;2.47;1.77;;;26.00;90.90;;;;;;4907455;29;20063;-65
2023/07/16 09:23:34;;;;;;;3.42;1.60;;;26.10;90.60;;;;;;4927124;29;20057;-65
2023/07/16 09:26:00;;;;;;;4.63;1.75;;;26.30;90.60;;;;;;4922749;29;20027;-65
2023/07/16 09:28:26;;;;;;;2.47;1.42;;;26.50;87.70;;;;;;4922004;29;20095;-65
2023/07/16 09:30:52;;;;;;;2.70;1.58;;;26.70;87.50;;;;;;4928429;29;20532;-65
2023/07/16 09:33:20;;;;;;;3.88;1.70;;;26.80;86.00;;;;;;4927612;29;20094;-64
2023/07/16 09:35:49;;;;;;;5.07;1.88;;;27.00;85.70;;;;;;4924120;29;20584;-65
2023/07/16 09:38:15;;;;;;;1.77;1.55;;;26.90;84.50;;;;;;4925686;29;20035;-65
2023/07/16 09:40:44;;;;;;;2.45;1.63;;;26.90;85.60;;;;;;4921800;29;20445;-66
2023/07/16 09:43:12;;;;;;;2.47;1.58;;;27.00;85.00;;;;;;4921788;29;20748;-66
2023/07/16 09:45:40;;;;;;;4.45;1.38;;;27.00;84.90;;;;;;4921769;29;20039;-67
2023/07/16 09:48:06;;;;;;;1.75;1.45;;;27.20;83.80;;;;;;4928259;29;20059;-64
2023/07/16 09:50:34;;;;;;;3.55;1.50;;;27.20;83.60;;;;;;4926753;29;20063;-64
2023/07/16 09:53:02;;;;;;;2.60;1.67;;;27.30;84.00;;;;;;4925692;29;20039;-65
2023/07/16 09:55:31;;;;;;;3.83;1.30;;;27.30;84.30;;;;;;4924484;29;20044;-65
2023/07/16 09:57:59;;;;;;;5.40;1.50;;;27.30;83.10;;;;;;4922884;29;20121;-65
2023/07/16 10:00:27;;;;;;;4.90;2.28;;;27.30;81.60;;;;;;4922179;29;20039;-65
2023/07/16 10:02:54;;;;;;;5.53;2.28;;;27.30;82.40;;;;;;4924485;29;20091;-66
2023/07/16 10:05:25;;;;;;;4.15;2.00;;;27.30;80.50;;;;;;4928226;29;20024;-65
2023/07/16 10:07:53;;;;;;;2.63;1.52;;;27.30;81.00;;;;;;4926174;29;20032;-65
2023/07/16 10:10:20;;;;;;;13.27;4.18;;;27.30;80.40;;;;;;4926733;29;20036;-65
2023/07/16 10:12:56;;;;;;;31.48;8.90;;;27.30;82.40;;;;;;4922623;29;20166;-65
2023/07/16 10:15:27;;;;;;;10.57;3.40;;;27.50;82.20;;;;;;4922689;29;20897;-66
2023/07/16 10:17:53;;;;;;;4.07;1.42;;;27.50;79.50;;;;;;4921965;29;20158;-64
2023/07/16 10:20:29;;;;;;;2.55;1.52;;;27.50;77.60;;;;;;4919887;29;20082;-65
2023/07/16 10:22:55;;;;;;;3.38;1.77;;;27.40;77.70;;;;;;4926639;29;20738;-65
2023/07/16 10:25:22;;;;;;;3.50;1.80;;;27.40;79.00;;;;;;4927342;29;20063;-65
2023/07/16 10:27:50;;;;;;;10.35;2.25;;;27.40;77.90;;;;;;4924445;29;20032;-64
2023/07/16 10:30:17;;;;;;;3.92;1.90;;;27.40;77.50;;;;;;4925095;29;20773;-65
2023/07/16 10:32:43;;;;;;;5.18;1.83;;;27.30;76.20;;;;;;4921461;29;20040;-64
2023/07/16 10:35:10;;;;;;;4.53;1.70;;;27.30;76.20;;;;;;4922781;29;20042;-65
2023/07/16 10:37:37;;;;;;;2.95;1.58;;;27.40;77.00;;;;;;4918089;29;20126;-66
2023/07/16 10:40:04;;;;;;;3.05;1.70;;;27.50;75.00;;;;;;4924943;29;20031;-65
2023/07/16 10:42:30;;;;;;;2.25;1.25;;;27.60;73.80;;;;;;4923663;29;20103;-65
2023/07/16 10:45:01;;;;;;;3.33;1.83;;;27.60;71.80;;;;;;4922752;29;20457;-66
2023/07/16 10:47:35;;;;;;;3.80;1.50;;;27.60;74.70;;;;;;4924366;29;20047;-65
2023/07/16 10:50:04;;;;;;;2.33;1.40;;;27.60;73.90;;;;;;4922859;29;20039;-65
2023/07/16 10:52:30;;;;;;;1.83;1.30;;;27.40;71.20;;;;;;4920888;29;20051;-65
2023/07/16 10:54:57;;;;;;;4.78;1.40;;;27.40;71.50;;;;;;4920384;29;20832;-66
2023/07/16 10:57:24;;;;;;;4.85;1.70;;;27.60;72.20;;;;;;4920127;29;20102;-65
2023/07/16 10:59:55;;;;;;;3.20;1.00;;;27.70;72.30;;;;;;4926559;29;20036;-65
2023/07/16 11:02:22;;;;;;;1.90;1.33;;;27.60;71.10;;;;;;4925919;29;20031;-65
2023/07/16 11:04:49;;;;;;;2.90;1.52;;;27.50;72.10;;;;;;4918638;29;20115;-66
2023/07/16 11:07:15;;;;;;;4.75;1.48;;;27.60;69.50;;;;;;4902852;29;20551;-66
2023/07/16 11:09:49;;;;;;;3.33;1.48;;;27.70;70.50;;;;;;4919846;29;20040;-65
2023/07/16 11:12:17;;;;;;;3.15;1.40;;;27.80;73.20;;;;;;4920586;29;20027;-66
2023/07/16 11:14:49;;;;;;;6.55;1.50;;;27.60;70.90;;;;;;4921363;29;20032;-66
2023/07/16 11:17:15;;;;;;;3.17;1.52;;;27.60;71.00;;;;;;4925866;29;20605;-65
2023/07/16 11:19:44;;;;;;;3.53;1.30;;;27.60;69.50;;;;;;4922944;29;20584;-65
2023/07/16 11:22:10;;;;;;;2.75;1.20;;;27.60;65.90;;;;;;4925201;29;20061;-66
2023/07/16 11:24:47;;;;;;;3.95;1.60;;;27.60;65.60;;;;;;4920707;29;20443;-65
2023/07/16 11:27:26;;;;;;;2.25;1.30;;;27.50;64.00;;;;;;4921175;29;20043;-65
2023/07/16 11:29:56;;;;;;;4.00;1.77;;;27.20;64.70;;;;;;4918855;29;20119;-65
2023/07/16 11:32:31;;;;;;;3.83;1.70;;;27.20;65.40;;;;;;4919202;29;20090;-65
2023/07/16 11:34:58;;;;;;;2.93;1.13;;;27.20;63.40;;;;;;4907445;29;20543;-64
2023/07/16 11:37:28;;;;;;;5.38;1.25;;;27.20;64.20;;;;;;4924852;29;20034;-64
2023/07/16 11:40:16;;;;;;;7.30;1.70;;;27.30;61.60;;;;;;4922403;29;20040;-64
2023/07/16 11:42:42;;;;;;;2.50;1.45;;;27.40;58.30;;;;;;4919499;29;20036;-64
2023/07/16 11:45:17;;;;;;;2.92;1.23;;;27.60;57.60;;;;;;4923143;29;20046;-65
2023/07/16 11:47:43;;;;;;;3.22;1.50;;;27.80;55.90;;;;;;4917344;29;20071;-65
2023/07/16 11:50:09;;;;;;;3.42;2.25;;;27.90;56.10;;;;;;4925031;29;20043;-64
2023/07/16 11:52:35;;;;;;;2.95;1.50;;;28.00;55.00;;;;;;4925041;29;20050;-64
2023/07/16 11:55:01;;;;;;;4.00;1.48;;;28.00;55.10;;;;;;4924525;29;20028;-64
2023/07/16 11:57:27;;;;;;;2.97;1.50;;;28.00;53.20;;;;;;4924045;29;20044;-64
2023/07/16 11:59:53;;;;;;;4.63;1.60;;;27.90;52.70;;;;;;4920665;29;20036;-65
2023/07/16 12:02:20;;;;;;;4.32;1.48;;;27.80;54.60;;;;;;4920717;29;20571;-64
2023/07/16 12:04:46;;;;;;;3.85;1.48;;;28.00;54.00;;;;;;4917439;29;20024;-64
2023/07/16 12:07:12;;;;;;;3.03;1.63;;;28.20;56.60;;;;;;4918426;29;20394;-64
2023/07/16 12:09:37;;;;;;;2.42;1.40;;;28.10;53.60;;;;;;4921868;29;20055;-64
2023/07/16 12:12:04;;;;;;;3.72;1.33;;;28.10;54.50;;;;;;4923984;29;20844;-64
2023/07/16 12:14:30;;;;;;;3.30;1.40;;;28.20;53.10;;;;;;4922774;29;20083;-64
2023/07/16 12:16:56;;;;;;;6.22;1.92;;;28.20;54.00;;;;;;4921145;29;20143;-64
2023/07/16 12:19:24;;;;;;;2.75;1.58;;;28.20;54.30;;;;;;4920472;29;20123;-64
2023/07/16 12:21:50;;;;;;;2.15;1.35;;;28.00;53.60;;;;;;4923384;29;20031;-64
2023/07/16 12:24:16;;;;;;;4.10;1.60;;;28.00;53.80;;;;;;4900462;29;20038;-64
2023/07/16 12:26:42;;;;;;;9.05;1.80;;;27.90;56.00;;;;;;4922509;29;20035;-64
2023/07/16 12:29:08;;;;;;;3.50;1.45;;;27.80;55.90;;;;;;4925194;29;20032;-64
2023/07/16 12:31:34;;;;;;;3.78;1.42;;;27.90;55.80;;;;;;4926588;29;20112;-64
2023/07/16 12:34:04;;;;;;;3.88;1.65;;;28.10;55.30;;;;;;4908067;29;20048;-64
2023/07/16 12:36:30;;;;;;;6.60;1.30;;;28.40;55.20;;;;;;4923941;29;20635;-65
2023/07/16 12:38:56;;;;;;;6.07;1.70;;;28.50;55.10;;;;;;4923163;29;20135;-64
2023/07/16 12:41:22;;;;;;;4.00;1.75;;;28.50;53.10;;;;;;4921268;29;20043;-64
2023/07/16 12:43:47;;;;;;;4.38;1.52;;;28.30;54.40;;;;;;4923618;29;20035;-64